»·PEaware :: UAL576 KABQ-KLAS

UAL576 :: KABQ-KLAS

FLIGHT INFORMATION

Flight Status: Arrived
Operator:
United Airlines
More flights by this operator :: More flights under this callsign
Pilot: Anonymous 8274 (8274)
Aircraft: BOEING 737-300
(B733)
More flights by this aircraft type
Origin: KABQ Albuquerque Intl Sunport
United States
Destination: KLAS McCarran Intl
United States
More flights between these airports :: More routes between these airports
Route: +RDRNR3 GUP LRAIN TYSSN5
File this flight plan on PilotEdge
Remarks: Northerly route INTENTIONAL
Altitude:
(Current/Filed)
26,000ft
Speed:
(Current/Filed)
440kts
Departed: 01-Dec-17 07:47 PM
Arrived: 01-Dec-17 09:08 PM
Distance/Time
Traveled:
421nm/1:20
Distance/Time
To Go:
Arrived

Flight Plot

Page will automatically refresh every two minutes.

Flight plan parsing failed; only flown route is shown


Map Options




Map Legend


Flown Route
Filed Route
Departure Airport
Arrival Airport
Navaid (VOR, NDB)
Fix

Horizontal Profiles

Position Reports

Time Latitude Longitude Heading Altitude Ground
Speed
01-Dec-17 19:27 35.047898 -106.618154 173 5307ft 0kts
01-Dec-17 19:28 35.047898 -106.618154 173 5307ft 0kts
01-Dec-17 19:29 35.047898 -106.618154 173 5307ft 0kts
01-Dec-17 19:30 35.047898 -106.618154 173 5307ft 0kts
01-Dec-17 19:31 35.047898 -106.618154 173 5307ft 0kts
01-Dec-17 19:32 35.047898 -106.618154 173 5307ft 0kts
01-Dec-17 19:33 35.047898 -106.618154 173 5307ft 0kts
01-Dec-17 19:34 35.047898 -106.618154 173 5307ft 0kts
01-Dec-17 19:35 35.047898 -106.618154 173 5307ft 0kts
01-Dec-17 19:36 35.047898 -106.618154 173 5307ft 0kts
01-Dec-17 19:37 35.047898 -106.618154 173 5307ft 0kts
01-Dec-17 19:38 35.047898 -106.618154 173 5307ft 0kts
01-Dec-17 19:39 35.047898 -106.618154 173 5307ft 0kts
01-Dec-17 19:40 35.047898 -106.618154 173 5307ft 0kts
01-Dec-17 19:41 35.048085 -106.618178 173 5306ft 2kts
01-Dec-17 19:42 35.048418 -106.617917 269 5306ft 1kts
01-Dec-17 19:43 35.048413 -106.617833 271 5306ft 0kts
01-Dec-17 19:44 35.048413 -106.617833 271 5306ft 0kts
01-Dec-17 19:45 35.048413 -106.617833 271 5306ft 0kts
01-Dec-17 19:46 35.048413 -106.617833 271 5306ft 0kts
01-Dec-17 19:47 35.048380 -106.619094 253 5304ft 9kts
01-Dec-17 19:48 35.046070 -106.619589 181 5304ft 0kts
01-Dec-17 19:49 35.045450 -106.621241 225 5301ft 14kts
01-Dec-17 19:50 35.045248 -106.621377 191 5300ft 0kts
01-Dec-17 19:51 35.044537 -106.621362 163 5300ft 7kts
01-Dec-17 19:52 35.044265 -106.607813 90 5319ft 121kts
01-Dec-17 19:53 35.045399 -106.553482 89 6182ft 174kts
01-Dec-17 19:54 35.048489 -106.492772 60 7089ft 216kts
01-Dec-17 19:55 35.103951 -106.498020 294 8616ft 259kts
01-Dec-17 19:56 35.108680 -106.586598 262 10649ft 279kts
01-Dec-17 19:57 35.097915 -106.695654 262 11157ft 360kts
01-Dec-17 19:58 35.098238 -106.804707 280 13202ft 372kts
01-Dec-17 19:59 35.117507 -106.931131 275 15340ft 385kts
01-Dec-17 20:00 35.136006 -107.053893 278 18588ft 359kts
01-Dec-17 20:01 35.154071 -107.174607 278 20444ft 367kts
01-Dec-17 20:02 35.172898 -107.297841 279 22131ft 374kts
01-Dec-17 20:03 35.193229 -107.423162 279 23647ft 382kts
01-Dec-17 20:04 35.213997 -107.551602 279 25053ft 388kts
01-Dec-17 20:05 35.234875 -107.681680 278 26206ft 396kts
01-Dec-17 20:06 35.256133 -107.815078 278 26298ft 401kts
01-Dec-17 20:07 35.277223 -107.948308 278 26292ft 400kts
01-Dec-17 20:08 35.298241 -108.082081 278 26292ft 400kts
01-Dec-17 20:09 35.319083 -108.215752 278 26292ft 400kts
01-Dec-17 20:10 35.339700 -108.348961 278 26292ft 400kts
01-Dec-17 20:11 35.371481 -108.480063 285 26265ft 404kts
01-Dec-17 20:12 35.406577 -108.610612 285 26265ft 403kts
01-Dec-17 20:13 35.440642 -108.738162 284 26267ft 403kts
01-Dec-17 20:14 35.475574 -108.868611 288 26262ft 404kts
01-Dec-17 20:15 35.543189 -108.980800 302 26268ft 412kts
01-Dec-17 20:16 35.612386 -109.091920 302 26266ft 412kts
01-Dec-17 20:17 35.681760 -109.203947 302 26265ft 412kts
01-Dec-17 20:18 35.750877 -109.315926 302 26265ft 412kts
01-Dec-17 20:19 35.820044 -109.428352 302 26265ft 412kts
01-Dec-17 20:20 35.888996 -109.540794 302 26265ft 412kts
01-Dec-17 20:21 35.957136 -109.652278 301 26265ft 412kts
01-Dec-17 20:22 36.025959 -109.765424 301 26266ft 411kts
01-Dec-17 20:23 36.094509 -109.878338 302 26265ft 411kts
01-Dec-17 20:24 36.161936 -109.989328 302 26266ft 411kts
01-Dec-17 20:25 36.230342 -110.102693 302 26265ft 411kts
01-Dec-17 20:26 36.298097 -110.215383 302 26267ft 410kts
01-Dec-17 20:27 36.366076 -110.328823 302 26153ft 410kts
01-Dec-17 20:28 36.433871 -110.442335 302 26158ft 410kts
01-Dec-17 20:29 36.501458 -110.555875 302 26157ft 410kts
01-Dec-17 20:30 36.500606 -110.682396 248 26144ft 401kts
01-Dec-17 20:31 36.465728 -110.813132 254 26157ft 398kts
01-Dec-17 20:32 36.434954 -110.944781 255 26157ft 398kts
01-Dec-17 20:33 36.404198 -111.076350 255 26157ft 398kts
01-Dec-17 20:34 36.373274 -111.207935 254 26157ft 398kts
01-Dec-17 20:35 36.342654 -111.337602 256 26132ft 422kts
01-Dec-17 20:36 36.309397 -111.477518 256 26234ft 424kts
01-Dec-17 20:37 36.278875 -111.605275 256 26237ft 423kts
01-Dec-17 20:38 36.245731 -111.743477 256 26241ft 424kts
01-Dec-17 20:39 36.213746 -111.875834 254 26208ft 395kts
01-Dec-17 20:40 36.182044 -112.006387 254 26240ft 396kts
01-Dec-17 20:41 36.150254 -112.136615 254 26238ft 396kts
01-Dec-17 20:42 36.117421 -112.270531 256 26213ft 419kts
01-Dec-17 20:43 36.083143 -112.408589 255 26227ft 424kts
01-Dec-17 20:44 36.045883 -112.547816 255 26240ft 425kts
01-Dec-17 20:45 36.010655 -112.683161 255 26215ft 426kts
01-Dec-17 20:46 35.974565 -112.821266 255 26241ft 425kts
01-Dec-17 20:47 35.938043 -112.960189 255 26126ft 427kts
01-Dec-17 20:48 35.901129 -113.099242 255 26132ft 428kts
01-Dec-17 20:49 35.865367 -113.233165 255 26131ft 428kts
01-Dec-17 20:50 35.828501 -113.372373 255 26128ft 428kts
01-Dec-17 20:51 35.791533 -113.511278 255 25774ft 420kts
01-Dec-17 20:52 35.755810 -113.644822 255 23334ft 401kts
01-Dec-17 20:53 35.723199 -113.766452 255 21363ft 399kts
01-Dec-17 20:54 35.689417 -113.891494 255 19287ft 377kts
01-Dec-17 20:55 35.691521 -114.016145 282 17186ft 362kts
01-Dec-17 20:56 35.708512 -114.136923 282 15297ft 358kts
01-Dec-17 20:57 35.724966 -114.255214 281 13410ft 356kts
01-Dec-17 20:58 35.743330 -114.369407 302 11995ft 316kts
01-Dec-17 20:59 35.812984 -114.416332 338 12035ft 285kts
01-Dec-17 21:00 35.886285 -114.450651 338 12021ft 271kts
01-Dec-17 21:01 35.956643 -114.483603 339 10892ft 268kts
01-Dec-17 21:02 36.026272 -114.516839 329 10053ft 266kts
01-Dec-17 21:03 36.051110 -114.599649 282 8696ft 267kts
01-Dec-17 21:04 36.065462 -114.682983 282 8148ft 249kts
01-Dec-17 21:05 36.073249 -114.762096 270 8051ft 215kts
01-Dec-17 21:06 36.073289 -114.825584 271 7251ft 172kts
01-Dec-17 21:07 36.072920 -114.884711 271 5893ft 174kts
01-Dec-17 21:08 36.073235 -114.943619 271 5160ft 171kts
01-Dec-17 21:09 36.073537 -115.001630 272 4218ft 168kts
01-Dec-17 21:10 36.073768 -115.057663 271 3327ft 159kts
01-Dec-17 21:11 36.073637 -115.112006 269 2394ft 155kts
01-Dec-17 21:12 36.073694 -115.152629 284 2118ft 49kts
01-Dec-17 21:13 36.077750 -115.158223 1 2118ft 1kts
01-Dec-17 21:14 36.078030 -115.154623 89 2118ft 22kts
01-Dec-17 21:15 36.078985 -115.148196 357 2118ft 18kts
01-Dec-17 21:16 36.081156 -115.147872 65 2118ft 0kts

Navigation Log

Ident Type
Flight plan parsing failed, navigation log unavailable